Tlemcen Zenata, Algeria
Current Conditions -  °F | °C
As of 12:00 PM on Sunday 23 Nov 2014 (Local Time) from DAON Reporting Station
Scattered Clouds Scattered Clouds  
Wind Chill: 77°   Ceiling: Unl
Heat Index: 78°   Visibility: 6mi
Dew Point: 48°   Wind: 18mph
Humidity: 36%   Direction: 220°SW
Pressure: 29.88"   Gusts: NA
Location:  35.01°N, 1.46°W
Report Text: DAON 231100Z 22016KT 9999 SCT026 SCT100 25/09 Q1012
Loading
Personal Weather Stations






























Interactive Weather Map New forecast layout! Learn more

10-Day Weather Forecast

Advertisements
Track Severe Weather on mobile